Time;durP1;ratioP1;P1;durP2;ratioP2;P2;SDS_P1;SDS_P2;PMS_P1;PMS_P2;Temp;Humidity;BMP_temperature;BMP_pressure;BME280_temperature;BME280_humidity;BME280_pressure;Samples;Min_cycle;Max_cycle;Signal;HPM_P1;HPM_P2
2022/03/25 00:01:48;;;;;;;36.40;19.95;;;5.60;86.70;;;;;;5054922;28;20559;-59
2022/03/25 00:04:17;;;;;;;35.83;19.90;;;5.60;86.40;;;;;;5062760;28;20564;-59
2022/03/25 00:06:44;;;;;;;35.50;20.65;;;5.60;86.90;;;;;;5061832;27;20610;-59
2022/03/25 00:09:11;;;;;;;36.00;21.25;;;5.50;87.50;;;;;;5062706;28;20140;-59
2022/03/25 00:11:38;;;;;;;38.55;20.83;;;5.50;88.00;;;;;;5060159;28;20070;-59
2022/03/25 00:14:05;;;;;;;;;;;5.40;88.10;;;;;;5063497;28;20140;-59
2022/03/25 00:16:32;;;;;;;34.08;20.23;;;5.40;89.60;;;;;;5071556;27;19924;-59
2022/03/25 00:18:59;;;;;;;37.63;20.30;;;5.40;89.30;;;;;;5062979;28;20180;-59
2022/03/25 00:21:26;;;;;;;;;;;5.30;88.70;;;;;;5064081;28;20294;-59
2022/03/25 00:23:53;;;;;;;29.42;18.48;;;5.30;88.70;;;;;;5063506;28;20428;-59
2022/03/25 00:26:20;;;;;;;36.83;20.63;;;5.30;88.60;;;;;;5061949;28;20064;-59
2022/03/25 00:28:47;;;;;;;34.58;19.10;;;5.40;89.20;;;;;;5062052;28;20536;-59
2022/03/25 00:31:16;;;;;;;40.50;21.33;;;5.30;89.00;;;;;;5062144;28;20902;-59
2022/03/25 00:33:44;;;;;;;33.47;19.40;;;5.30;89.00;;;;;;5060994;28;20344;-59
2022/03/25 00:36:11;;;;;;;37.33;20.10;;;5.30;89.10;;;;;;5061871;28;20199;-59
2022/03/25 00:38:38;;;;;;;;;;;5.20;89.20;;;;;;5062811;28;20035;-59
2022/03/25 00:41:06;;;;;;;36.88;21.55;;;5.30;89.40;;;;;;5063270;28;20139;-59
2022/03/25 00:43:34;;;;;;;39.22;20.45;;;5.20;90.30;;;;;;5061329;28;20359;-59
2022/03/25 00:46:02;;;;;;;36.20;21.02;;;5.20;90.70;;;;;;5058588;28;20888;-59
2022/03/25 00:48:29;;;;;;;35.30;20.90;;;5.10;90.80;;;;;;5060478;28;20038;-59
2022/03/25 00:50:56;;;;;;;;;;;5.10;90.90;;;;;;5059863;28;20047;-59
2022/03/25 00:53:23;;;;;;;35.08;19.50;;;5.00;90.90;;;;;;5062035;28;19919;-59
2022/03/25 00:55:51;;;;;;;38.30;21.15;;;5.00;91.00;;;;;;5059040;28;20092;-59
2022/03/25 00:58:19;;;;;;;37.28;21.00;;;5.00;91.10;;;;;;5060349;28;20042;-59
2022/03/25 01:00:47;;;;;;;30.48;18.58;;;5.00;91.10;;;;;;5059629;28;20069;-59
2022/03/25 01:03:15;;;;;;;35.80;21.23;;;5.00;91.00;;;;;;5062563;28;20035;-59
2022/03/25 01:05:42;;;;;;;39.00;21.25;;;5.00;91.70;;;;;;5045338;28;20051;-59
2022/03/25 01:08:11;;;;;;;36.53;21.02;;;5.00;91.60;;;;;;5061175;28;20035;-59
2022/03/25 01:10:38;;;;;;;34.67;20.23;;;4.90;91.70;;;;;;5061944;28;20300;-59
2022/03/25 01:13:06;;;;;;;32.83;19.85;;;4.90;91.70;;;;;;5061202;28;20048;-58
2022/03/25 01:15:34;;;;;;;35.67;19.58;;;4.80;91.80;;;;;;5060307;28;20146;-59
2022/03/25 01:18:01;;;;;;;34.17;19.38;;;4.80;92.00;;;;;;5058187;28;20165;-59
2022/03/25 01:20:29;;;;;;;36.45;21.70;;;4.80;92.10;;;;;;5061370;28;20046;-59
2022/03/25 01:22:56;;;;;;;34.75;20.63;;;4.80;92.60;;;;;;5050236;28;20526;-59
2022/03/25 01:25:24;;;;;;;39.75;22.20;;;4.70;92.60;;;;;;5060847;28;20059;-59
2022/03/25 01:27:50;;;;;;;38.40;22.17;;;4.70;93.00;;;;;;5061271;28;20044;-59
2022/03/25 01:30:18;;;;;;;34.78;20.83;;;4.70;93.70;;;;;;5060476;28;20092;-59
2022/03/25 01:32:44;;;;;;;;;;;4.60;93.90;;;;;;5060399;28;20039;-58
2022/03/25 01:35:12;;;;;;;34.95;20.42;;;4.60;93.80;;;;;;5062315;28;20448;-59
2022/03/25 01:37:41;;;;;;;38.95;21.38;;;4.60;93.80;;;;;;5061502;28;20614;-59
2022/03/25 01:40:09;;;;;;;34.05;19.08;;;4.70;93.80;;;;;;5058947;28;20144;-58
2022/03/25 01:42:41;;;;;;;31.55;19.95;;;4.60;93.90;;;;;;5062683;28;20050;-59
2022/03/25 01:45:11;;;;;;;38.22;20.73;;;4.60;94.00;;;;;;5065708;28;20537;-61
2022/03/25 01:47:39;;;;;;;30.50;17.75;;;4.60;94.10;;;;;;5061556;28;20887;-59
2022/03/25 01:50:19;;;;;;;31.23;18.63;;;4.60;94.10;;;;;;5065718;28;20035;-59
2022/03/25 01:52:49;;;;;;;31.58;18.85;;;4.50;94.30;;;;;;5065103;28;20055;-60
2022/03/25 01:55:21;;;;;;;33.45;21.02;;;4.50;94.50;;;;;;5066282;28;20138;-59
2022/03/25 01:57:50;;;;;;;31.98;18.40;;;4.50;94.60;;;;;;5063846;28;20576;-58
2022/03/25 02:00:18;;;;;;;33.50;19.63;;;4.50;94.90;;;;;;5065607;28;20054;-59
2022/03/25 02:02:48;;;;;;;43.47;20.13;;;4.40;95.10;;;;;;5064500;28;20253;-59
2022/03/25 02:05:17;;;;;;;35.25;21.02;;;4.40;95.70;;;;;;5064045;28;20035;-58
2022/03/25 02:07:45;;;;;;;36.05;21.08;;;4.40;96.20;;;;;;5060585;28;20054;-59
2022/03/25 02:10:12;;;;;;;33.97;20.20;;;4.30;96.60;;;;;;5062039;28;20884;-59
2022/03/25 02:12:41;;;;;;;38.45;20.65;;;4.30;96.90;;;;;;5063312;28;20423;-59
2022/03/25 02:15:09;;;;;;;39.20;20.45;;;4.30;97.40;;;;;;5063973;28;20077;-59
2022/03/25 02:17:37;;;;;;;36.30;21.50;;;4.30;97.90;;;;;;5061649;28;20625;-59
2022/03/25 02:20:08;;;;;;;36.35;19.30;;;4.30;98.20;;;;;;5062839;28;20058;-59
2022/03/25 02:22:40;;;;;;;39.83;21.58;;;4.30;98.50;;;;;;5064926;28;20223;-59
2022/03/25 02:25:11;;;;;;;42.03;20.83;;;4.20;98.80;;;;;;5063460;28;20051;-59
2022/03/25 02:27:39;;;;;;;34.53;20.85;;;4.20;99.30;;;;;;5063266;28;20032;-59
2022/03/25 02:30:07;;;;;;;34.10;20.55;;;4.20;99.40;;;;;;5062062;28;20501;-59
2022/03/25 02:32:35;;;;;;;29.73;18.08;;;4.10;99.70;;;;;;5064493;28;20039;-59
2022/03/25 02:35:03;;;;;;;30.30;19.25;;;4.10;99.90;;;;;;5063823;28;20065;-59
2022/03/25 02:37:30;;;;;;;33.42;19.27;;;4.10;99.90;;;;;;5061233;28;20801;-59
2022/03/25 02:39:57;;;;;;;39.13;21.65;;;4.00;99.90;;;;;;5046079;28;20576;-58
2022/03/25 02:42:24;;;;;;;39.00;22.00;;;4.00;99.90;;;;;;5062153;28;20204;-59
2022/03/25 02:44:51;;;;;;;;;;;4.00;99.90;;;;;;5061897;28;20040;-59
2022/03/25 02:47:19;;;;;;;39.33;21.20;;;4.00;99.90;;;;;;5063102;28;20188;-59
2022/03/25 02:49:46;;;;;;;34.00;20.45;;;4.00;99.90;;;;;;5063081;28;20035;-59
2022/03/25 02:52:12;;;;;;;;;;;4.00;99.90;;;;;;5064651;28;20062;-59
2022/03/25 02:54:39;;;;;;;;;;;4.00;99.90;;;;;;5065732;28;19920;-59
2022/03/25 02:57:06;;;;;;;;;;;4.00;99.90;;;;;;5064113;28;20012;-58
2022/03/25 02:59:33;;;;;;;;;;;4.00;99.90;;;;;;5064222;28;19935;-59
2022/03/25 03:02:00;;;;;;;;;;;4.00;99.90;;;;;;5064177;28;19923;-60
2022/03/25 03:04:27;;;;;;;;;;;4.00;99.90;;;;;;5065562;28;20120;-60
2022/03/25 03:06:54;;;;;;;;;;;4.00;99.90;;;;;;5064036;28;19919;-60
2022/03/25 03:09:21;;;;;;;;;;;4.00;99.90;;;;;;5062361;28;19920;-59
2022/03/25 03:11:48;;;;;;;;;;;4.00;99.90;;;;;;5061615;28;19923;-59
2022/03/25 03:14:14;;;;;;;;;;;3.90;99.90;;;;;;5064488;28;19923;-60
2022/03/25 03:16:41;;;;;;;;;;;3.90;99.90;;;;;;5064247;28;19924;-59
2022/03/25 03:19:08;;;;;;;;;;;3.80;99.90;;;;;;5061752;28;19923;-59
2022/03/25 03:21:35;;;;;;;;;;;3.80;99.90;;;;;;5065316;28;19934;-59
2022/03/25 03:24:02;;;;;;;;;;;3.80;99.90;;;;;;5064595;28;19934;-58
2022/03/25 03:26:29;;;;;;;;;;;3.80;99.90;;;;;;5064778;28;19920;-59
2022/03/25 03:28:55;;;;;;;;;;;3.80;99.90;;;;;;5061379;28;19919;-59
2022/03/25 03:31:22;;;;;;;;;;;3.80;99.90;;;;;;5063225;28;20772;-59
2022/03/25 03:33:49;;;;;;;;;;;3.80;99.90;;;;;;5063285;28;19919;-59
2022/03/25 03:36:16;;;;;;;;;;;3.80;99.90;;;;;;5064246;28;20293;-59
2022/03/25 03:38:43;;;;;;;;;;;3.70;99.90;;;;;;5062394;28;20202;-59
2022/03/25 03:41:10;;;;;;;;;;;3.70;99.90;;;;;;5062944;28;20191;-59
2022/03/25 03:43:36;;;;;;;;;;;3.60;99.90;;;;;;5064312;28;20383;-59
2022/03/25 03:46:03;;;;;;;;;;;3.60;99.90;;;;;;5062864;28;19919;-60
2022/03/25 03:48:31;;;;;;;;;;;3.60;99.90;;;;;;5061298;28;19946;-59
2022/03/25 03:50:58;;;;;;;;;;;3.50;99.90;;;;;;5062992;28;19935;-59
2022/03/25 03:53:24;;;;;;;;;;;3.50;99.90;;;;;;5064289;28;19955;-59
2022/03/25 03:55:51;;;;;;;;;;;3.50;99.90;;;;;;5064502;28;19923;-59
2022/03/25 03:58:18;;;;;;;;;;;3.50;99.90;;;;;;5062715;28;20153;-59
2022/03/25 04:00:44;;;;;;;;;;;3.50;99.90;;;;;;5061092;28;19935;-59
2022/03/25 04:03:12;;;;;;;;;;;3.50;99.90;;;;;;5043765;28;19931;-61
2022/03/25 04:05:38;;;;;;;;;;;3.50;99.90;;;;;;5042428;28;19920;-59
2022/03/25 04:08:07;;;;;;;;;;;3.50;99.90;;;;;;5042417;28;19920;-59
2022/03/25 04:10:35;;;;;;;;;;;3.50;99.90;;;;;;5047666;28;19920;-60
2022/03/25 04:13:01;;;;;;;;;;;3.50;99.90;;;;;;5063235;28;20372;-59
2022/03/25 04:15:29;;;;;;;;;;;3.40;99.90;;;;;;5072314;27;19926;-59
2022/03/25 04:17:56;;;;;;;;;;;3.40;99.90;;;;;;5063365;28;20224;-59
2022/03/25 04:20:23;;;;;;;;;;;3.40;99.90;;;;;;5062054;28;19924;-59
2022/03/25 04:22:50;;;;;;;;;;;3.50;99.90;;;;;;5062363;28;20112;-59
2022/03/25 04:25:16;;;;;;;;;;;3.50;99.90;;;;;;5060625;28;20415;-60
2022/03/25 04:27:47;;;;;;;;;;;3.40;99.90;;;;;;5060075;28;19972;-59
2022/03/25 04:30:16;;;;;;;;;;;3.40;99.90;;;;;;5061520;28;19919;-59
2022/03/25 04:32:43;;;;;;;;;;;3.50;99.90;;;;;;5062604;28;20440;-60
2022/03/25 04:35:09;;;;;;;;;;;3.40;99.90;;;;;;5063786;28;19947;-59
2022/03/25 04:37:36;;;;;;;;;;;3.50;99.90;;;;;;5062690;28;19923;-60
2022/03/25 04:40:04;;;;;;;;;;;3.50;99.90;;;;;;5061408;28;19923;-60
2022/03/25 04:42:31;;;;;;;;;;;3.50;99.90;;;;;;5063058;28;20023;-60
2022/03/25 04:44:57;;;;;;;;;;;3.50;99.90;;;;;;5062854;28;19929;-59
2022/03/25 04:47:24;;;;;;;;;;;3.50;99.90;;;;;;5061492;28;19919;-60
2022/03/25 04:49:51;;;;;;;;;;;3.50;99.90;;;;;;5060290;28;20424;-60
2022/03/25 04:52:18;;;;;;;;;;;3.50;99.90;;;;;;5061695;28;20036;-59
2022/03/25 04:54:44;;;;;;;;;;;3.50;99.90;;;;;;5063505;28;19935;-60
2022/03/25 04:57:11;;;;;;;;;;;3.50;99.90;;;;;;5062247;28;19927;-60
2022/03/25 04:59:38;;;;;;;;;;;3.50;99.90;;;;;;5062724;28;20809;-60
2022/03/25 05:02:05;;;;;;;;;;;3.40;99.90;;;;;;5062339;28;19920;-59
2022/03/25 05:04:31;;;;;;;;;;;3.30;99.90;;;;;;5062026;28;20103;-59
2022/03/25 05:06:58;;;;;;;;;;;3.30;99.90;;;;;;5060808;28;19919;-59
2022/03/25 05:09:25;;;;;;;;;;;3.30;99.90;;;;;;5060636;28;19920;-59
2022/03/25 05:11:52;;;;;;;;;;;3.30;99.90;;;;;;5061318;28;19919;-59
2022/03/25 05:14:20;;;;;;;;;;;3.30;99.90;;;;;;5062594;28;19985;-59
2022/03/25 05:16:52;;;;;;;;;;;3.20;99.90;;;;;;5064135;28;20545;-59
2022/03/25 05:19:20;;;;;;;;;;;3.20;99.90;;;;;;5066702;28;20073;-59
2022/03/25 05:21:46;;;;;;;;;;;3.20;99.90;;;;;;5066106;28;19920;-59
2022/03/25 05:24:13;;;;;;;;;;;3.10;99.90;;;;;;5064271;28;19927;-59
2022/03/25 05:26:40;;;;;;;;;;;3.20;99.90;;;;;;5066305;28;19920;-59
2022/03/25 05:29:07;;;;;;;;;;;3.20;99.90;;;;;;5064895;28;19919;-59
2022/03/25 05:31:36;;;;;;;;;;;3.20;99.90;;;;;;5066914;28;20088;-59
2022/03/25 05:34:04;;;;;;;;;;;3.20;99.90;;;;;;5066262;28;20100;-50
2022/03/25 05:36:34;;;;;;;;;;;3.20;99.90;;;;;;5067449;28;20619;-57
2022/03/25 05:39:01;;;;;;;;;;;3.20;99.90;;;;;;5064030;28;20034;-58
2022/03/25 05:41:29;;;;;;;;;;;3.30;99.90;;;;;;5064573;28;19931;-58
2022/03/25 05:43:56;;;;;;;;;;;3.30;99.90;;;;;;5064103;28;19923;-58
2022/03/25 05:46:23;;;;;;;;;;;3.40;99.90;;;;;;5065286;28;19920;-58
2022/03/25 05:48:50;;;;;;;;;;;3.40;99.90;;;;;;5064398;28;19930;-58
2022/03/25 05:51:16;;;;;;;;;;;3.30;99.90;;;;;;5061066;28;19920;-56
2022/03/25 05:53:43;;;;;;;;;;;3.40;99.90;;;;;;5043284;28;20100;-57
2022/03/25 05:56:11;;;;;;;;;;;3.40;99.90;;;;;;5047917;28;20046;-57
2022/03/25 05:58:38;;;;;;;;;;;3.40;99.90;;;;;;5043856;28;19920;-57
2022/03/25 06:01:05;;;;;;;;;;;3.50;99.90;;;;;;5045894;28;19924;-58
2022/03/25 06:03:32;;;;;;;;;;;3.50;99.90;;;;;;5044331;28;20655;-57
2022/03/25 06:06:02;;;;;;;;;;;3.50;99.90;;;;;;5043429;28;20102;-57
2022/03/25 06:08:30;;;;;;;;;;;3.60;99.90;;;;;;5061613;28;19919;-58
2022/03/25 06:10:59;;;;;;;;;;;3.60;99.90;;;;;;5056919;28;20482;-56
2022/03/25 06:13:26;;;;;;;;;;;3.70;99.90;;;;;;5044788;28;20117;-58
2022/03/25 06:15:53;;;;;;;;;;;3.70;99.90;;;;;;5048180;28;20282;-58
2022/03/25 06:18:21;;;;;;;;;;;3.80;99.90;;;;;;5043597;28;20432;-56
2022/03/25 06:20:48;;;;;;;;;;;3.90;99.90;;;;;;5062454;28;19920;-56
2022/03/25 06:23:15;;;;;;;;;;;4.00;99.90;;;;;;5064629;28;19923;-55
2022/03/25 06:25:42;;;;;;;;;;;4.10;99.90;;;;;;5063339;28;19965;-57
2022/03/25 06:28:09;;;;;;;;;;;4.20;99.90;;;;;;5046063;28;19967;-56
2022/03/25 06:30:38;;;;;;;;;;;4.30;99.90;;;;;;5044479;28;20088;-57
2022/03/25 06:33:06;;;;;;;;;;;4.50;99.90;;;;;;5043477;28;20062;-56
2022/03/25 06:35:34;;;;;;;;;;;4.60;99.90;;;;;;5043915;28;20367;-56
2022/03/25 06:38:04;;;;;;;;;;;4.70;99.90;;;;;;5041232;28;20047;-56
2022/03/25 06:40:31;;;;;;;;;;;4.90;99.90;;;;;;5042561;28;20622;-56
2022/03/25 06:42:58;;;;;;;;;;;5.10;99.90;;;;;;5042509;28;19934;-56
2022/03/25 06:45:25;;;;;;;;;;;5.30;99.90;;;;;;5057477;28;19924;-57
2022/03/25 06:47:52;;;;;;;;;;;5.50;99.90;;;;;;5045876;28;19920;-56
2022/03/25 06:50:20;;;;;;;;;;;5.70;99.90;;;;;;5043490;28;19924;-56
2022/03/25 06:52:48;;;;;;;;;;;6.10;99.90;;;;;;5042503;28;19924;-56
2022/03/25 06:55:15;;;;;;;;;;;6.40;99.90;;;;;;5042555;28;20161;-57
2022/03/25 06:57:47;;;;;;;;;;;6.80;99.90;;;;;;5059985;28;19920;-56
2022/03/25 07:00:14;;;;;;;;;;;7.20;99.90;;;;;;5063602;28;19927;-56
2022/03/25 07:02:42;;;;;;;;;;;7.40;99.90;;;;;;5063936;28;20673;-58
2022/03/25 07:05:10;;;;;;;;;;;7.60;99.90;;;;;;5064009;28;20016;-57
2022/03/25 07:07:37;;;;;;;;;;;7.80;99.90;;;;;;5062721;28;19920;-58
2022/03/25 07:10:05;;;;;;;;;;;7.90;99.40;;;;;;5063300;28;19923;-58
2022/03/25 07:12:32;;;;;;;;;;;8.10;99.10;;;;;;5043363;28;19927;-57
2022/03/25 07:14:58;;;;;;;;;;;8.20;98.80;;;;;;5054017;27;19920;-58
2022/03/25 07:17:29;;;;;;;;;;;8.30;98.50;;;;;;5048913;28;19920;-60
2022/03/25 07:19:56;;;;;;;;;;;8.40;98.10;;;;;;5046164;28;20258;-59
2022/03/25 07:22:23;;;;;;;;;;;8.50;97.60;;;;;;5046788;28;20452;-59
2022/03/25 07:24:50;;;;;;;;;;;8.60;97.70;;;;;;5045538;28;19928;-62
2022/03/25 07:27:17;;;;;;;;;;;8.70;97.30;;;;;;5042444;28;20084;-66
2022/03/25 07:29:43;;;;;;;;;;;8.80;97.50;;;;;;5046426;28;20286;-64
2022/03/25 07:32:10;;;;;;;;;;;9.00;96.60;;;;;;5047764;28;19935;-58
2022/03/25 07:34:38;;;;;;;;;;;9.40;95.70;;;;;;5042527;28;20069;-58
2022/03/25 07:37:05;;;;;;;;;;;9.80;93.90;;;;;;5042650;28;19924;-59
2022/03/25 07:39:32;;;;;;;;;;;10.40;92.40;;;;;;5042587;28;20218;-59
2022/03/25 07:41:59;;;;;;;;;;;10.80;90.90;;;;;;5041417;28;19920;-48
2022/03/25 07:44:25;;;;;;;;;;;11.30;88.00;;;;;;5044696;28;20448;-49
2022/03/25 07:46:52;;;;;;;;;;;11.80;83.80;;;;;;5042708;28;19934;-48
2022/03/25 07:49:19;;;;;;;;;;;12.20;82.00;;;;;;5044604;28;19931;-48
2022/03/25 07:51:46;;;;;;;;;;;12.70;79.30;;;;;;5044198;28;20259;-54
2022/03/25 07:54:12;;;;;;;;;;;13.00;76.40;;;;;;5042818;28;19969;-50
2022/03/25 07:56:39;;;;;;;;;;;13.50;74.30;;;;;;5042741;28;19924;-51
2022/03/25 07:59:06;;;;;;;;;;;13.90;71.30;;;;;;5040484;28;19931;-55
2022/03/25 08:01:33;;;;;;;;;;;14.30;70.10;;;;;;5041762;28;19970;-57
2022/03/25 08:04:00;;;;;;;;;;;14.70;68.10;;;;;;5039077;28;20456;-57
2022/03/25 08:06:27;;;;;;;;;;;15.10;62.50;;;;;;5041206;28;20338;-57
2022/03/25 08:08:53;;;;;;;;;;;15.40;59.90;;;;;;5039370;28;20506;-58
2022/03/25 08:11:20;;;;;;;;;;;15.60;60.10;;;;;;5046629;28;19959;-58
2022/03/25 08:13:47;;;;;;;;;;;15.80;57.80;;;;;;5038489;28;20214;-57
2022/03/25 08:16:16;;;;;;;;;;;16.00;56.70;;;;;;5041850;27;20028;-58
2022/03/25 08:18:43;;;;;;;;;;;16.20;56.10;;;;;;5052850;28;19928;-56
2022/03/25 08:21:11;;;;;;;;;;;16.30;55.10;;;;;;5021758;28;20122;-55
2022/03/25 08:29:10;;;;;;;;;;;16.40;51.80;;;;;;5059356;28;19930;-56
2022/03/25 08:31:45;;;;;;;;;;;16.50;52.40;;;;;;5055569;28;20006;-56
2022/03/25 08:34:16;;;;;;;;;;;16.50;51.90;;;;;;5039624;28;19923;-56
2022/03/25 08:36:45;;;;;;;;;;;16.60;51.10;;;;;;5039794;28;20104;-56
2022/03/25 08:39:12;;;;;;;;;;;16.70;51.50;;;;;;5039206;28;19930;-57
2022/03/25 08:41:39;;;;;;;;;;;16.80;52.20;;;;;;5039919;28;20182;-57
2022/03/25 08:44:06;;;;;;;;;;;17.00;53.00;;;;;;5040134;28;19920;-55
2022/03/25 08:46:34;;;;;;;;;;;17.20;52.30;;;;;;5038661;28;20327;-56
2022/03/25 08:49:05;;;;;;;;;;;17.40;50.30;;;;;;5057442;28;20779;-54
2022/03/25 08:51:32;;;;;;;;;;;17.60;48.60;;;;;;5046593;28;20097;-55
2022/03/25 08:53:58;;;;;;;;;;;17.70;49.80;;;;;;5039785;28;19932;-56
2022/03/25 08:56:27;;;;;;;;;;;17.90;48.90;;;;;;5039268;28;19926;-56
2022/03/25 08:58:55;;;;;;;;;;;18.00;47.90;;;;;;5037558;28;19920;-56
2022/03/25 09:01:22;;;;;;;;;;;18.10;47.80;;;;;;5036707;28;19931;-56
2022/03/25 09:03:50;;;;;;;;;;;18.30;48.10;;;;;;5039000;28;19920;-56
2022/03/25 09:06:17;;;;;;;;;;;18.50;47.00;;;;;;5037375;28;19920;-56
2022/03/25 09:08:44;;;;;;;;;;;18.90;48.10;;;;;;5037032;28;20404;-55
2022/03/25 09:11:11;;;;;;;;;;;19.10;49.00;;;;;;5040504;28;20223;-56
2022/03/25 09:13:40;;;;;;;;;;;19.20;48.30;;;;;;5038457;28;20036;-55
2022/03/25 09:16:07;;;;;;;;;;;19.30;49.30;;;;;;5043803;28;19920;-55
2022/03/25 09:18:34;;;;;;;;;;;19.50;49.00;;;;;;5038667;28;20624;-55
2022/03/25 09:21:01;;;;;;;;;;;19.60;48.70;;;;;;5037734;28;19978;-55
2022/03/25 09:23:28;;;;;;;;;;;19.60;47.90;;;;;;5038787;28;20360;-56
2022/03/25 09:25:55;;;;;;;;;;;19.20;47.50;;;;;;5039489;28;19931;-54
2022/03/25 09:28:21;;;;;;;;;;;19.00;49.50;;;;;;5041199;28;19932;-57
2022/03/25 09:30:48;;;;;;;;;;;19.00;49.10;;;;;;5038678;28;20739;-56
2022/03/25 09:33:15;;;;;;;;;;;19.00;49.20;;;;;;5021151;28;20312;-57
2022/03/25 09:35:44;;;;;;;;;;;19.10;49.20;;;;;;5039091;28;20240;-57
2022/03/25 09:38:11;;;;;;;;;;;19.30;48.60;;;;;;5036391;28;20081;-56
2022/03/25 09:40:41;;;;;;;;;;;19.60;47.80;;;;;;5038625;28;20514;-55
2022/03/25 09:43:08;;;;;;;;;;;19.70;45.30;;;;;;5059355;28;20451;-56
2022/03/25 09:45:36;;;;;;;;;;;19.80;44.60;;;;;;5059051;28;19923;-57
2022/03/25 09:48:04;;;;;;;;;;;19.80;46.70;;;;;;5043980;28;20014;-56
2022/03/25 09:50:33;;;;;;;;;;;19.90;46.50;;;;;;5040866;28;19920;-56
2022/03/25 09:53:00;;;;;;;;;;;19.90;45.00;;;;;;5039426;28;19955;-57
2022/03/25 09:55:38;;;;;;;;;;;19.90;45.40;;;;;;5058315;28;19963;-56
2022/03/25 09:58:04;;;;;;;;;;;19.80;44.10;;;;;;5057234;28;20464;-56
2022/03/25 10:00:32;;;;;;;;;;;19.80;45.10;;;;;;5057884;28;19926;-57
2022/03/25 10:03:00;;;;;;;;;;;19.80;46.10;;;;;;5058616;28;19920;-57
2022/03/25 10:05:27;;;;;;;;;;;19.90;43.80;;;;;;5062942;28;20395;-57
2022/03/25 10:07:57;;;;;;;;;;;19.90;44.20;;;;;;5061932;28;19930;-56
2022/03/25 10:10:26;;;;;;;;;;;20.00;40.20;;;;;;5059195;28;19980;-57
2022/03/25 10:13:00;;;;;;;;;;;20.20;39.60;;;;;;5043492;28;20306;-56
2022/03/25 10:15:29;;;;;;;;;;;20.30;40.30;;;;;;5053813;27;19931;-57
2022/03/25 10:18:01;;;;;;;;;;;20.50;41.30;;;;;;5042069;28;19924;-56
2022/03/25 10:20:39;;;;;;;;;;;20.70;39.10;;;;;;5042545;28;19924;-58
2022/03/25 10:23:09;;;;;;;;;;;20.90;39.40;;;;;;5040046;28;19924;-57
2022/03/25 10:25:49;;;;;;;;;;;21.00;39.90;;;;;;5060640;28;20604;-57
2022/03/25 10:28:37;;;;;;;;;;;21.00;40.20;;;;;;5061475;27;20166;-58
2022/03/25 10:31:15;;;;;;;;;;;21.20;41.40;;;;;;5046555;28;20498;-57
2022/03/25 10:33:43;;;;;;;;;;;21.40;41.60;;;;;;5059249;28;19964;-58
2022/03/25 10:36:12;;;;;;;;;;;21.50;40.40;;;;;;5062909;28;19923;-58
2022/03/25 10:38:43;;;;;;;;;;;21.60;41.20;;;;;;5060580;28;20046;-58
2022/03/25 10:41:11;;;;;;;;;;;21.80;40.20;;;;;;5062423;28;19924;-58
2022/03/25 10:43:52;;;;;;;;;;;21.90;40.70;;;;;;5061223;28;20013;-57
2022/03/25 10:46:25;;;;;;;;;;;22.00;38.90;;;;;;5059948;28;19967;-57
2022/03/25 10:48:53;;;;;;;;;;;22.10;39.00;;;;;;5041784;28;19930;-57
2022/03/25 10:51:20;;;;;;;;;;;22.20;38.90;;;;;;5043300;28;20111;-58
2022/03/25 10:53:54;;;;;;;;;;;22.30;39.00;;;;;;5043471;28;19924;-57
2022/03/25 10:56:22;;;;;;;;;;;22.30;38.90;;;;;;5043356;28;20323;-57
2022/03/25 10:58:53;;;;;;;;;;;22.30;38.80;;;;;;5041793;28;19939;-58
2022/03/25 11:01:20;;;;;;;;;;;22.40;38.40;;;;;;5042494;28;20276;-58
2022/03/25 11:03:53;;;;;;;;;;;22.40;37.90;;;;;;5042935;28;19926;-57
2022/03/25 11:06:20;;;;;;;;;;;22.30;36.90;;;;;;5044778;28;20145;-58
2022/03/25 11:08:47;;;;;;;;;;;22.30;37.80;;;;;;5037541;28;20476;-58
2022/03/25 11:11:15;;;;;;;;;;;22.30;36.50;;;;;;5043608;28;20316;-58
2022/03/25 11:13:43;;;;;;;;;;;22.40;36.10;;;;;;5040363;28;19927;-58
2022/03/25 11:16:12;;;;;;;;;;;22.40;36.30;;;;;;5049160;27;19931;-58
2022/03/25 11:18:41;;;;;;;;;;;22.50;34.10;;;;;;5040976;28;20577;-59
2022/03/25 11:21:09;;;;;;;;;;;22.40;35.00;;;;;;5040661;28;19989;-58
2022/03/25 11:23:46;;;;;;;;;;;22.30;35.40;;;;;;5039695;28;19924;-58
2022/03/25 11:26:14;;;;;;;;;;;22.40;35.10;;;;;;5041188;28;20639;-57
2022/03/25 11:28:42;;;;;;;;;;;22.40;36.00;;;;;;5040131;28;19931;-58
2022/03/25 11:31:09;;;;;;;;;;;22.40;35.30;;;;;;5041144;28;19920;-58
2022/03/25 11:33:54;;;;;;;;;;;22.30;36.30;;;;;;5039170;28;19927;-58
2022/03/25 11:36:24;;;;;;;;;;;22.10;34.70;;;;;;5059212;28;19997;-56
2022/03/25 11:39:10;;;;;;;;;;;22.00;35.40;;;;;;5060458;28;19923;-62
2022/03/25 11:41:37;;;;;;;;;;;21.80;35.60;;;;;;5043348;28;20468;-55
2022/03/25 11:44:13;;;;;;;;;;;21.60;35.90;;;;;;5029047;28;20034;-59
2022/03/25 11:46:59;;;;;;;;;;;21.50;37.30;;;;;;5045311;28;19920;-58
2022/03/25 11:49:27;;;;;;;;;;;21.50;36.30;;;;;;5043788;28;20062;-57
2022/03/25 11:51:54;;;;;;;;;;;21.40;36.50;;;;;;5040528;28;19927;-58
2022/03/25 11:54:34;;;;;;;;;;;21.30;36.70;;;;;;5040640;28;20286;-58
2022/03/25 11:57:05;;;;;;;;;;;21.40;37.30;;;;;;5041931;28;19920;-58
2022/03/25 11:59:51;;;;;;;;;;;21.40;36.10;;;;;;5023574;28;20040;-57
2022/03/25 12:02:22;;;;;;;;;;;21.30;36.60;;;;;;5055408;27;19927;-58
2022/03/25 12:04:49;;;;;;;;;;;21.30;37.60;;;;;;5043623;28;20137;-58
2022/03/25 12:07:17;;;;;;;;;;;21.30;35.20;;;;;;5040626;28;20062;-57
2022/03/25 12:09:45;;;;;;;;;;;21.20;35.30;;;;;;5039471;28;19931;-57
2022/03/25 12:12:12;;;;;;;;;;;21.30;37.60;;;;;;5041170;28;19943;-57
2022/03/25 12:14:57;;;;;;;;;;;21.30;36.00;;;;;;5040988;27;20456;-57
2022/03/25 12:17:24;;;;;;;;;;;21.10;37.40;;;;;;5037676;28;19928;-57
2022/03/25 12:19:53;;;;;;;;;;;21.00;36.70;;;;;;5040247;28;19931;-58
2022/03/25 12:22:23;;;;;;;;;;;20.90;37.60;;;;;;5039386;28;20129;-58
2022/03/25 12:24:51;;;;;;;;;;;21.00;36.70;;;;;;5038686;28;19920;-57
2022/03/25 12:27:18;;;;;;;;;;;21.00;36.30;;;;;;5038129;28;19928;-57
2022/03/25 12:29:51;;;;;;;;;;;20.90;37.40;;;;;;5038082;28;20093;-57
2022/03/25 12:32:19;;;;;;;;;;;20.90;37.30;;;;;;5038614;28;19927;-56
2022/03/25 12:35:06;;;;;;;;;;;21.00;38.10;;;;;;5040273;28;20294;-57
2022/03/25 12:37:33;;;;;;;;;;;21.10;38.00;;;;;;5056978;28;19919;-57
2022/03/25 12:40:10;;;;;;;;;;;21.20;37.30;;;;;;5059906;28;20432;-58
2022/03/25 12:42:37;;;;;;;;;;;21.40;36.90;;;;;;5059899;28;20537;-58
2022/03/25 12:45:04;;;;;;;;;;;21.50;36.00;;;;;;5058377;28;20219;-57
2022/03/25 12:47:37;;;;;;;;;;;21.30;35.90;;;;;;5048928;28;20739;-57
2022/03/25 12:50:05;;;;;;;;;;;21.30;36.50;;;;;;5040590;28;19920;-58
2022/03/25 12:52:32;;;;;;;;;;;21.30;37.30;;;;;;5040155;28;19955;-58
2022/03/25 12:55:15;;;;;;;;;;;21.20;36.90;;;;;;5040553;28;20567;-58
2022/03/25 12:57:42;;;;;;;;;;;21.10;36.90;;;;;;5058631;28;20490;-58
2022/03/25 13:00:11;;;;;;;;;;;21.20;36.70;;;;;;5059697;28;20528;-56
2022/03/25 13:02:43;;;;;;;;;;;21.30;38.30;;;;;;5058020;28;19926;-57
2022/03/25 13:05:12;;;;;;;;;;;21.30;36.10;;;;;;5060266;28;20038;-58
2022/03/25 13:07:49;;;;;;;;;;;21.40;37.10;;;;;;5056623;28;19924;-58
2022/03/25 13:10:16;;;;;;;;;;;21.40;36.10;;;;;;5052772;28;21259;-57
2022/03/25 13:12:44;;;;;;;;;;;21.60;35.20;;;;;;5057179;28;20223;-58
2022/03/25 13:15:12;;;;;;;;;;;21.70;35.90;;;;;;5052891;28;19924;-58
2022/03/25 13:17:40;;;;;;;;;;;21.80;33.50;;;;;;5038809;28;19931;-57
2022/03/25 13:20:11;;;;;;;;;;;21.90;33.50;;;;;;5038460;28;19935;-58
2022/03/25 13:22:51;;;;;;;;;;;22.00;32.90;;;;;;5038076;28;19920;-57
2022/03/25 13:25:23;;;;;;;;;;;22.10;33.50;;;;;;5038285;28;20005;-59
2022/03/25 13:27:50;;;;;;;;;;;22.20;32.40;;;;;;5036561;28;19924;-58
2022/03/25 13:30:16;;;;;;;;;;;22.10;31.70;;;;;;5040067;28;20144;-58
2022/03/25 13:32:43;;;;;;;;;;;21.90;34.30;;;;;;5039776;28;19928;-58
2022/03/25 13:35:13;;;;;;;;;;;21.90;34.60;;;;;;5039120;28;20034;-58
2022/03/25 13:37:39;;;;;;;;;;;22.00;34.40;;;;;;5020594;28;19939;-58
2022/03/25 13:40:25;;;;;;;;;;;22.10;32.00;;;;;;5042269;28;20326;-59
2022/03/25 13:42:55;;;;;;;;;;;22.10;32.00;;;;;;5061117;28;19919;-58
2022/03/25 13:45:23;;;;;;;;;;;22.00;33.30;;;;;;5061208;28;19932;-57
2022/03/25 13:47:57;;;;;;;;;;;21.90;32.20;;;;;;5041212;28;20020;-58
2022/03/25 13:50:23;;;;;;;;;;;22.00;33.40;;;;;;5041076;28;20042;-58
2022/03/25 13:52:59;;;;;;;;;;;21.90;32.00;;;;;;5044163;28;19924;-57
2022/03/25 13:55:30;;;;;;;;;;;22.00;32.50;;;;;;5043634;28;19990;-58
2022/03/25 13:57:58;;;;;;;;;;;21.80;30.80;;;;;;5042941;28;20539;-58
2022/03/25 14:00:29;;;;;;;;;;;21.80;31.50;;;;;;5044630;28;19920;-57
2022/03/25 14:02:57;;;;;;;;;;;21.70;32.10;;;;;;5044920;28;20522;-48
2022/03/25 14:05:25;;;;;;;;;;;21.70;32.60;;;;;;5043631;28;20471;-48
2022/03/25 14:07:54;;;;;;;;;;;21.80;31.50;;;;;;5043662;28;19977;-51
2022/03/25 14:10:21;;;;;;;;;;;21.80;31.30;;;;;;5044018;28;19927;-48
2022/03/25 14:12:59;;;;;;;;;;;21.70;32.20;;;;;;5041077;28;19931;-48
2022/03/25 14:15:26;;;;;;;;;;;21.70;31.30;;;;;;5054639;27;20151;-48